createdAt,value
2018-02-04T00:00:13.237Z,1001.85
2018-02-04T00:02:13.208Z,1001.90
2018-02-04T00:03:13.670Z,1001.87
2018-02-04T00:04:13.171Z,1001.91
2018-02-04T00:05:13.181Z,1001.93
2018-02-04T00:06:13.163Z,1001.94
2018-02-04T00:07:13.148Z,1001.95
2018-02-04T00:08:13.134Z,1001.96
2018-02-04T00:09:13.805Z,1001.94
2018-02-04T00:10:13.223Z,1001.96
2018-02-04T00:11:13.162Z,1001.94
2018-02-04T00:12:13.116Z,1001.98
2018-02-04T00:13:13.094Z,1002.01
2018-02-04T00:14:13.079Z,1002.03
2018-02-04T00:15:13.479Z,1002.03
2018-02-04T00:16:13.780Z,1002.03
2018-02-04T00:17:13.039Z,1002.04
2018-02-04T00:18:13.435Z,1002.01
2018-02-04T00:20:13.010Z,1002.04
2018-02-04T00:21:13.030Z,1002.02
2018-02-04T00:22:13.373Z,1002.01
2018-02-04T00:23:13.005Z,1002.03
2018-02-04T00:24:12.976Z,1002.01
2018-02-04T00:25:13.034Z,1002.03
2018-02-04T00:27:12.956Z,1002.05
2018-02-04T00:28:12.935Z,1002.05
2018-02-04T00:29:13.248Z,1002.10
2018-02-04T00:31:12.970Z,1002.11
2018-02-04T00:32:12.888Z,1002.12
2018-02-04T00:33:12.891Z,1002.18
2018-02-04T00:35:12.867Z,1002.21
2018-02-04T00:37:13.257Z,1002.26
2018-02-04T00:38:12.854Z,1002.29
2018-02-04T00:39:12.841Z,1002.27
2018-02-04T00:40:12.874Z,1002.29
2018-02-04T00:41:13.290Z,1002.35
2018-02-04T00:42:12.838Z,1002.38
2018-02-04T00:43:13.731Z,1002.38
2018-02-04T00:44:12.858Z,1002.40
2018-02-04T00:45:12.795Z,1002.40
2018-02-04T00:46:12.760Z,1002.45
2018-02-04T00:47:12.740Z,1002.44
2018-02-04T00:48:12.715Z,1002.46
2018-02-04T00:49:13.058Z,1002.44
2018-02-04T00:50:12.723Z,1002.46
2018-02-04T00:51:12.695Z,1002.49
2018-02-04T00:52:12.699Z,1002.49
2018-02-04T00:53:12.685Z,1002.54
2018-02-04T00:54:12.732Z,1002.48
2018-02-04T00:56:12.937Z,1002.51
2018-02-04T01:00:12.630Z,1002.50
2018-02-04T01:01:12.572Z,1002.56
2018-02-04T01:02:12.590Z,1002.54
2018-02-04T01:03:12.943Z,1002.57
2018-02-04T01:04:12.637Z,1002.54
2018-02-04T01:05:12.576Z,1002.56
2018-02-04T01:06:12.854Z,1002.59
2018-02-04T01:07:12.514Z,1002.59
2018-02-04T01:08:13.078Z,1002.60
2018-02-04T01:10:12.491Z,1002.63
2018-02-04T01:11:12.822Z,1002.70
2018-02-04T01:12:12.498Z,1002.73
2018-02-04T01:14:12.471Z,1002.72
2018-02-04T01:16:12.439Z,1002.72
2018-02-04T01:17:12.416Z,1002.73
2018-02-04T01:18:12.771Z,1002.75
2018-02-04T01:19:12.421Z,1002.75
2018-02-04T01:20:12.422Z,1002.74
2018-02-04T01:21:12.370Z,1002.77
2018-02-04T01:22:12.353Z,1002.79
2018-02-04T01:23:12.373Z,1002.78
2018-02-04T01:24:12.339Z,1002.78
2018-02-04T01:25:12.764Z,1002.78
2018-02-04T01:26:12.344Z,1002.80
2018-02-04T01:27:12.302Z,1002.83
2018-02-04T01:28:12.290Z,1002.82
2018-02-04T01:29:12.305Z,1002.85
2018-02-04T01:30:12.267Z,1002.86
2018-02-04T01:31:12.349Z,1002.87
2018-02-04T01:32:12.641Z,1002.87
2018-02-04T01:34:12.271Z,1002.86
2018-02-04T01:35:12.240Z,1002.89
2018-02-04T01:36:12.202Z,1002.84
2018-02-04T01:38:12.271Z,1002.87
2018-02-04T01:40:12.591Z,1002.86
2018-02-04T01:41:12.156Z,1002.88
2018-02-04T01:42:12.144Z,1002.91
2018-02-04T01:44:12.155Z,1002.92
2018-02-04T01:45:12.127Z,1002.91
2018-02-04T01:46:12.402Z,1002.89
2018-02-04T01:47:12.126Z,1002.92
2018-02-04T01:48:12.147Z,1002.94
2018-02-04T01:49:12.076Z,1002.90
2018-02-04T01:50:12.069Z,1002.93
2018-02-04T01:51:12.109Z,1002.92
2018-02-04T01:52:12.373Z,1002.96
2018-02-04T01:53:12.062Z,1002.98
2018-02-04T01:55:12.009Z,1002.98
2018-02-04T01:58:12.186Z,1002.98
2018-02-04T01:59:12.265Z,1003.00
2018-02-04T02:00:11.978Z,1003.02
2018-02-04T02:02:11.944Z,1003.07
2018-02-04T02:03:12.028Z,1003.05
2018-02-04T02:04:11.934Z,1003.04
2018-02-04T02:05:13.235Z,1003.04
2018-02-04T02:06:11.910Z,1003.07
2018-02-04T02:07:11.917Z,1003.08
2018-02-04T02:08:11.891Z,1003.09
2018-02-04T02:09:11.931Z,1003.09
2018-02-04T02:10:11.868Z,1003.07
2018-02-04T02:11:12.148Z,1003.05
2018-02-04T02:15:11.872Z,1003.09
2018-02-04T02:16:11.802Z,1003.09
2018-02-04T02:17:12.135Z,1003.09
2018-02-04T02:18:11.809Z,1003.14
2018-02-04T02:19:11.769Z,1003.12
2018-02-04T02:20:11.865Z,1003.12
2018-02-04T02:21:12.025Z,1003.13
2018-02-04T02:22:11.757Z,1003.15
2018-02-04T02:23:12.476Z,1003.17
2018-02-04T02:24:11.707Z,1003.16
2018-02-04T02:27:11.659Z,1003.19
2018-02-04T02:28:11.671Z,1003.19
2018-02-04T02:29:11.641Z,1003.18
2018-02-04T02:30:11.984Z,1003.22
2018-02-04T02:32:11.671Z,1003.20
2018-02-04T02:33:11.844Z,1003.24
2018-02-04T02:34:11.620Z,1003.24
2018-02-04T02:35:11.598Z,1003.23
2018-02-04T02:36:11.633Z,1003.26
2018-02-04T02:37:11.948Z,1003.27
2018-02-04T02:38:11.557Z,1003.31
2018-02-04T02:42:11.527Z,1003.38
2018-02-04T02:44:11.558Z,1003.39
2018-02-04T02:45:11.834Z,1003.42
2018-02-04T02:46:12.056Z,1003.38
2018-02-04T02:47:11.476Z,1003.39
2018-02-04T02:49:11.444Z,1003.45
2018-02-04T02:50:11.428Z,1003.46
2018-02-04T02:51:11.471Z,1003.48
2018-02-04T02:52:11.831Z,1003.48
2018-02-04T02:53:11.410Z,1003.49
2018-02-04T02:54:11.408Z,1003.48
2018-02-04T02:55:11.382Z,1003.53
2018-02-04T02:56:11.374Z,1003.52
2018-02-04T02:57:11.358Z,1003.58
2018-02-04T02:58:11.334Z,1003.56
2018-02-04T02:59:11.626Z,1003.59
2018-02-04T03:00:11.316Z,1003.60
2018-02-04T03:01:11.297Z,1003.63
2018-02-04T03:03:11.331Z,1003.69
2018-02-04T03:04:11.276Z,1003.69
2018-02-04T03:05:11.283Z,1003.71
2018-02-04T03:07:11.613Z,1003.80
2018-02-04T03:08:11.243Z,1003.79
2018-02-04T03:09:11.499Z,1003.77
2018-02-04T03:10:11.216Z,1003.81
2018-02-04T03:11:11.488Z,1003.81
2018-02-04T03:12:11.267Z,1003.80
2018-02-04T03:13:11.341Z,1003.80
2018-02-04T03:14:11.542Z,1003.79
2018-02-04T03:16:11.161Z,1003.82
2018-02-04T03:17:11.173Z,1003.85
2018-02-04T03:18:11.128Z,1003.90
2018-02-04T03:19:11.115Z,1003.93
2018-02-04T03:20:11.419Z,1003.90
2018-02-04T03:21:11.106Z,1003.94
2018-02-04T03:22:11.145Z,1003.94
2018-02-04T03:24:11.135Z,1003.90
2018-02-04T03:25:11.063Z,1003.94
2018-02-04T03:26:11.412Z,1003.98
2018-02-04T03:27:11.051Z,1004.00
2018-02-04T03:28:11.048Z,1004.02
2018-02-04T03:29:11.062Z,1004.05
2018-02-04T03:30:11.014Z,1004.07
2018-02-04T03:31:11.067Z,1004.07
2018-02-04T03:32:11.352Z,1004.08
2018-02-04T03:33:10.982Z,1004.10
2018-02-04T03:35:10.965Z,1004.14
2018-02-04T03:37:10.939Z,1004.17
2018-02-04T03:39:11.210Z,1004.21
2018-02-04T03:40:10.909Z,1004.25
2018-02-04T03:41:10.939Z,1004.26
2018-02-04T03:42:10.875Z,1004.28
2018-02-04T03:43:10.883Z,1004.26
2018-02-04T03:44:10.913Z,1004.31
2018-02-04T03:45:11.171Z,1004.32
2018-02-04T03:46:10.868Z,1004.34
2018-02-04T03:48:10.867Z,1004.37
2018-02-04T03:49:10.860Z,1004.38
2018-02-04T03:50:10.792Z,1004.44
2018-02-04T03:51:11.118Z,1004.43
2018-02-04T03:52:10.791Z,1004.47
2018-02-04T03:53:10.766Z,1004.47
2018-02-04T03:55:10.750Z,1004.54
2018-02-04T03:56:10.741Z,1004.54
2018-02-04T03:57:11.091Z,1004.55
2018-02-04T03:58:10.710Z,1004.58
2018-02-04T03:59:11.150Z,1004.57
2018-02-04T04:00:10.770Z,1004.55
2018-02-04T04:01:11.025Z,1004.61
2018-02-04T04:02:10.663Z,1004.61
2018-02-04T04:04:10.643Z,1004.62
2018-02-04T04:05:11.019Z,1004.65
2018-02-04T04:07:10.630Z,1004.70
2018-02-04T04:09:10.617Z,1004.72
2018-02-04T04:10:10.627Z,1004.74
2018-02-04T04:11:10.591Z,1004.73
2018-02-04T04:12:10.861Z,1004.76
2018-02-04T04:13:10.565Z,1004.76
2018-02-04T04:14:10.565Z,1004.75
2018-02-04T04:15:10.627Z,1004.77
2018-02-04T04:16:10.555Z,1004.80
2018-02-04T04:17:10.550Z,1004.84
2018-02-04T04:18:10.593Z,1004.86
2018-02-04T04:19:10.785Z,1004.89
2018-02-04T04:21:10.467Z,1004.93
2018-02-04T04:22:10.443Z,1004.94
2018-02-04T04:23:10.461Z,1004.96
2018-02-04T04:24:10.445Z,1004.95
2018-02-04T04:25:10.413Z,1004.96
2018-02-04T04:26:11.120Z,1005.01
2018-02-04T04:27:10.596Z,1005.02
2018-02-04T04:28:10.424Z,1005.02
2018-02-04T04:29:10.511Z,1005.04
2018-02-04T04:30:10.576Z,1005.05
2018-02-04T04:31:10.648Z,1005.06
2018-02-04T04:34:10.691Z,1005.08
2018-02-04T04:35:10.366Z,1005.13
2018-02-04T04:36:10.295Z,1005.10
2018-02-04T04:37:10.303Z,1005.14
2018-02-04T04:38:10.290Z,1005.10
2018-02-04T04:39:10.335Z,1005.13
2018-02-04T04:40:10.299Z,1005.18
2018-02-04T04:41:10.551Z,1005.16
2018-02-04T04:42:10.235Z,1005.18
2018-02-04T04:43:10.239Z,1005.21
2018-02-04T04:44:10.214Z,1005.24
2018-02-04T04:45:10.250Z,1005.23
2018-02-04T04:49:11.084Z,1005.28
2018-02-04T04:50:10.147Z,1005.28
2018-02-04T04:51:10.659Z,1005.28
2018-02-04T04:52:10.173Z,1005.30
2018-02-04T04:53:10.124Z,1005.35
2018-02-04T04:54:10.163Z,1005.35
2018-02-04T04:55:10.488Z,1005.36
2018-02-04T04:57:10.090Z,1005.41
2018-02-04T04:58:10.079Z,1005.41
2018-02-04T04:59:10.100Z,1005.42
2018-02-04T05:00:10.093Z,1005.42
2018-02-04T05:01:10.356Z,1005.41
2018-02-04T05:02:10.023Z,1005.44
2018-02-04T05:03:10.034Z,1005.44
2018-02-04T05:04:10.010Z,1005.48
2018-02-04T05:05:10.062Z,1005.46
2018-02-04T05:06:10.014Z,1005.54
2018-02-04T05:07:10.275Z,1005.56
2018-02-04T05:09:09.953Z,1005.61
2018-02-04T05:10:09.947Z,1005.60
2018-02-04T05:13:09.928Z,1005.64
2018-02-04T05:14:10.330Z,1005.65
2018-02-04T05:15:09.889Z,1005.71
2018-02-04T05:16:09.917Z,1005.68
2018-02-04T05:17:09.876Z,1005.74
2018-02-04T05:20:09.862Z,1005.72
2018-02-04T05:21:10.225Z,1005.74
2018-02-04T05:22:09.882Z,1005.77
2018-02-04T05:23:09.839Z,1005.76
2018-02-04T05:24:09.806Z,1005.87
2018-02-04T05:26:09.780Z,1005.87
2018-02-04T05:27:10.097Z,1005.88
2018-02-04T05:28:09.786Z,1005.89
2018-02-04T05:29:09.765Z,1005.90
2018-02-04T05:30:09.778Z,1005.88
2018-02-04T05:31:09.787Z,1005.93
2018-02-04T05:32:09.737Z,1005.88
2018-02-04T05:33:09.706Z,1005.95
2018-02-04T05:34:10.061Z,1005.93
2018-02-04T05:35:09.697Z,1005.96
2018-02-04T05:36:09.704Z,1005.99
2018-02-04T05:37:09.673Z,1006.00
2018-02-04T05:38:09.776Z,1006.04
2018-02-04T05:39:09.920Z,1006.01
2018-02-04T05:40:09.669Z,1006.08
2018-02-04T05:41:10.269Z,1006.13
2018-02-04T05:42:09.621Z,1006.08
2018-02-04T05:43:09.715Z,1006.13
2018-02-04T05:44:09.626Z,1006.18
2018-02-04T05:45:09.679Z,1006.22
2018-02-04T05:46:09.616Z,1006.24
2018-02-04T05:47:09.615Z,1006.24
2018-02-04T05:48:09.980Z,1006.28
2018-02-04T05:50:09.547Z,1006.35
2018-02-04T05:51:09.558Z,1006.33
2018-02-04T05:52:09.553Z,1006.38
2018-02-04T05:53:09.635Z,1006.39
2018-02-04T05:54:09.490Z,1006.41
2018-02-04T05:55:09.808Z,1006.44
2018-02-04T05:56:09.482Z,1006.48
2018-02-04T05:57:09.512Z,1006.51
2018-02-04T05:58:09.495Z,1006.53
2018-02-04T05:59:09.458Z,1006.57
2018-02-04T06:02:09.468Z,1006.60
2018-02-04T06:03:09.765Z,1006.62
2018-02-04T06:04:09.694Z,1006.63
2018-02-04T06:05:09.373Z,1006.64
2018-02-04T06:06:09.766Z,1006.64
2018-02-04T06:08:09.408Z,1006.64
2018-02-04T06:09:09.368Z,1006.65
2018-02-04T06:10:09.675Z,1006.68
2018-02-04T06:11:09.336Z,1006.74
2018-02-04T06:12:09.304Z,1006.69
2018-02-04T06:13:09.453Z,1006.77
2018-02-04T06:15:09.291Z,1006.78
2018-02-04T06:16:09.285Z,1006.80
2018-02-04T06:17:09.583Z,1006.85
2018-02-04T06:18:09.327Z,1006.86
2018-02-04T06:19:09.257Z,1006.84
2018-02-04T06:20:09.264Z,1006.84
2018-02-04T06:21:09.216Z,1006.88
2018-02-04T06:22:09.204Z,1006.89
2018-02-04T06:24:09.486Z,1006.93
2018-02-04T06:25:09.255Z,1006.99
2018-02-04T06:26:09.194Z,1006.99
2018-02-04T06:28:09.156Z,1007.01
2018-02-04T06:30:09.132Z,1007.08
2018-02-04T06:32:09.405Z,1007.17
2018-02-04T06:33:09.107Z,1007.16
2018-02-04T06:34:09.102Z,1007.23
2018-02-04T06:35:09.089Z,1007.25
2018-02-04T06:36:09.084Z,1007.25
2018-02-04T06:37:09.061Z,1007.29
2018-02-04T06:40:09.358Z,1007.44
2018-02-04T06:41:09.019Z,1007.48
2018-02-04T06:42:09.016Z,1007.49
2018-02-04T06:43:09.080Z,1007.51
2018-02-04T06:44:08.990Z,1007.50
2018-02-04T06:45:08.982Z,1007.54
2018-02-04T06:46:09.309Z,1007.53
2018-02-04T06:47:08.939Z,1007.57
2018-02-04T06:49:08.936Z,1007.58
2018-02-04T06:50:08.927Z,1007.61
2018-02-04T06:51:08.900Z,1007.61
2018-02-04T06:53:09.258Z,1007.66
2018-02-04T06:54:09.138Z,1007.65
2018-02-04T06:55:08.973Z,1007.69
2018-02-04T06:56:09.254Z,1007.72
2018-02-04T07:00:08.916Z,1007.81
2018-02-04T07:01:09.152Z,1007.83
2018-02-04T07:02:08.795Z,1007.86
2018-02-04T07:03:08.788Z,1007.91
2018-02-04T07:05:08.830Z,1007.92
2018-02-04T07:06:08.791Z,1007.96
2018-02-04T07:09:08.841Z,1008.03
2018-02-04T07:11:09.114Z,1008.03
2018-02-04T07:12:08.699Z,1008.08
2018-02-04T07:13:08.694Z,1008.06
2018-02-04T07:14:08.663Z,1008.05
2018-02-04T07:15:08.693Z,1008.06
2018-02-04T07:16:08.688Z,1008.09
2018-02-04T07:17:08.629Z,1008.12
2018-02-04T07:18:08.930Z,1008.14
2018-02-04T07:19:08.916Z,1008.14
2018-02-04T07:20:08.606Z,1008.16
2018-02-04T07:22:08.657Z,1008.23
2018-02-04T07:23:08.577Z,1008.23
2018-02-04T07:24:08.641Z,1008.30
2018-02-04T07:25:08.890Z,1008.29
2018-02-04T07:26:08.571Z,1008.35
2018-02-04T07:27:08.568Z,1008.41
2018-02-04T07:28:08.526Z,1008.37
2018-02-04T07:29:08.587Z,1008.42
2018-02-04T07:30:08.531Z,1008.42
2018-02-04T07:31:08.511Z,1008.43
2018-02-04T07:32:08.803Z,1008.44
2018-02-04T07:33:08.556Z,1008.45
2018-02-04T07:34:08.508Z,1008.50
2018-02-04T07:36:08.488Z,1008.53
2018-02-04T07:37:08.446Z,1008.55
2018-02-04T07:38:08.421Z,1008.54
2018-02-04T07:39:08.743Z,1008.57
2018-02-04T07:40:08.469Z,1008.56
2018-02-04T07:42:08.475Z,1008.62
2018-02-04T07:43:08.377Z,1008.63
2018-02-04T07:45:08.374Z,1008.63
2018-02-04T07:46:09.024Z,1008.62
2018-02-04T07:47:08.345Z,1008.68
2018-02-04T07:48:08.360Z,1008.66
2018-02-04T07:49:08.880Z,1008.72
2018-02-04T07:51:08.296Z,1008.75
2018-02-04T07:52:08.315Z,1008.76
2018-02-04T07:53:08.622Z,1008.81
2018-02-04T07:54:08.296Z,1008.84
2018-02-04T07:55:08.244Z,1008.86
2018-02-04T07:56:08.289Z,1008.88
2018-02-04T07:57:08.239Z,1008.88
2018-02-04T07:58:08.251Z,1008.90
2018-02-04T07:59:08.595Z,1008.93
2018-02-04T08:01:08.221Z,1008.97
2018-02-04T08:03:08.246Z,1009.04
2018-02-04T08:05:08.188Z,1009.07
2018-02-04T08:06:08.626Z,1009.08
2018-02-04T08:07:08.222Z,1009.09
2018-02-04T08:09:08.195Z,1009.10
2018-02-04T08:11:08.176Z,1009.09
2018-02-04T08:12:08.428Z,1009.11
2018-02-04T08:13:08.087Z,1009.13
2018-02-04T08:14:08.097Z,1009.16
2018-02-04T08:15:08.052Z,1009.21
2018-02-04T08:16:08.064Z,1009.21
2018-02-04T08:17:08.006Z,1009.23
2018-02-04T08:18:08.342Z,1009.29
2018-02-04T08:19:07.997Z,1009.36
2018-02-04T08:20:07.994Z,1009.38
2018-02-04T08:21:08.039Z,1009.42
2018-02-04T08:22:08.052Z,1009.44
2018-02-04T08:23:07.991Z,1009.47
2018-02-04T08:24:08.301Z,1009.47
2018-02-04T08:25:08.012Z,1009.56
2018-02-04T08:26:07.962Z,1009.59
2018-02-04T08:27:08.051Z,1009.59
2018-02-04T08:28:07.899Z,1009.58
2018-02-04T08:29:07.920Z,1009.60
2018-02-04T08:30:08.253Z,1009.61
2018-02-04T08:31:07.872Z,1009.60
2018-02-04T08:32:07.923Z,1009.63
2018-02-04T08:33:07.893Z,1009.63
2018-02-04T08:34:08.093Z,1009.66
2018-02-04T08:35:07.868Z,1009.65
2018-02-04T08:36:08.314Z,1009.72
2018-02-04T08:37:07.815Z,1009.72
2018-02-04T08:40:07.773Z,1009.71
2018-02-04T08:41:07.861Z,1009.74
2018-02-04T08:43:07.760Z,1009.76
2018-02-04T08:44:08.079Z,1009.76
2018-02-04T08:45:07.742Z,1009.83
2018-02-04T08:46:07.761Z,1009.82
2018-02-04T08:47:07.704Z,1009.83
2018-02-04T08:48:07.702Z,1009.81
2018-02-04T08:49:07.719Z,1009.83
2018-02-04T08:50:07.839Z,1009.85
2018-02-04T08:51:08.031Z,1009.87
2018-02-04T08:52:07.655Z,1009.92
2018-02-04T08:53:07.682Z,1009.91
2018-02-04T08:54:07.660Z,1009.92
2018-02-04T08:55:07.619Z,1009.90
2018-02-04T08:57:07.977Z,1009.92
2018-02-04T08:58:08.258Z,1009.93
2018-02-04T09:01:07.667Z,1010.01
2018-02-04T09:02:07.554Z,1010.01
2018-02-04T09:03:07.570Z,1010.01
2018-02-04T09:04:07.538Z,1010.04
2018-02-04T09:05:07.917Z,1010.01
2018-02-04T09:06:07.518Z,1010.03
2018-02-04T09:07:07.503Z,1010.09
2018-02-04T09:09:07.586Z,1010.10
2018-02-04T09:10:07.563Z,1010.10
2018-02-04T09:11:07.462Z,1010.13
2018-02-04T09:13:07.889Z,1010.17
2018-02-04T09:14:07.505Z,1010.15
2018-02-04T09:15:07.427Z,1010.20
2018-02-04T09:16:07.404Z,1010.20
2018-02-04T09:17:07.417Z,1010.21
2018-02-04T09:18:07.383Z,1010.19
2018-02-04T09:19:07.422Z,1010.22
2018-02-04T09:20:07.794Z,1010.21
2018-02-04T09:21:07.369Z,1010.21
2018-02-04T09:22:07.758Z,1010.26
2018-02-04T09:23:07.395Z,1010.25
2018-02-04T09:25:07.383Z,1010.29
2018-02-04T09:26:07.415Z,1010.34
2018-02-04T09:27:07.634Z,1010.29
2018-02-04T09:28:07.294Z,1010.34
2018-02-04T09:29:07.277Z,1010.35
2018-02-04T09:30:07.369Z,1010.40
2018-02-04T09:32:07.318Z,1010.42
2018-02-04T09:33:07.262Z,1010.46
2018-02-04T09:34:07.605Z,1010.47
2018-02-04T09:35:07.205Z,1010.47
2018-02-04T09:36:07.229Z,1010.46
2018-02-04T09:38:07.186Z,1010.51
2018-02-04T09:40:07.454Z,1010.56
2018-02-04T09:41:07.234Z,1010.50
2018-02-04T09:42:07.128Z,1010.52
2018-02-04T09:43:07.122Z,1010.56
2018-02-04T09:44:07.171Z,1010.58
2018-02-04T09:45:07.118Z,1010.60
2018-02-04T09:46:07.464Z,1010.62
2018-02-04T09:47:07.160Z,1010.62
2018-02-04T09:49:07.110Z,1010.61
2018-02-04T09:50:07.047Z,1010.64
2018-02-04T09:51:07.276Z,1010.67
2018-02-04T09:52:07.415Z,1010.69
2018-02-04T09:53:07.102Z,1010.68
2018-02-04T09:54:07.044Z,1010.69
2018-02-04T09:56:07.004Z,1010.72
2018-02-04T09:58:06.977Z,1010.72
2018-02-04T09:59:07.317Z,1010.73
2018-02-04T10:00:07.056Z,1010.70
2018-02-04T10:01:06.958Z,1010.66
2018-02-04T10:02:07.167Z,1010.73
2018-02-04T10:03:06.943Z,1010.70
2018-02-04T10:04:06.900Z,1010.75
2018-02-04T10:05:07.246Z,1010.75
2018-02-04T10:06:06.935Z,1010.72
2018-02-04T10:07:06.951Z,1010.76
2018-02-04T10:08:06.909Z,1010.77
2018-02-04T10:09:06.861Z,1010.79
2018-02-04T10:10:06.854Z,1010.79
2018-02-04T10:11:07.233Z,1010.77
2018-02-04T10:12:07.161Z,1010.77
2018-02-04T10:13:06.849Z,1010.79
2018-02-04T10:15:06.834Z,1010.80
2018-02-04T10:18:07.135Z,1010.82
2018-02-04T10:19:06.854Z,1010.82
2018-02-04T10:20:07.254Z,1010.84
2018-02-04T10:23:06.812Z,1010.89
2018-02-04T10:24:06.752Z,1010.94
2018-02-04T10:25:07.124Z,1010.93
2018-02-04T10:26:06.782Z,1010.92
2018-02-04T10:27:06.715Z,1010.96
2018-02-04T10:28:06.710Z,1010.93
2018-02-04T10:29:07.109Z,1010.91
2018-02-04T10:30:06.667Z,1010.93
2018-02-04T10:31:06.863Z,1010.95
2018-02-04T10:32:07.080Z,1010.97
2018-02-04T10:33:06.719Z,1010.99
2018-02-04T10:34:06.639Z,1010.98
2018-02-04T10:35:06.812Z,1010.98
2018-02-04T10:36:06.695Z,1010.97
2018-02-04T10:37:06.736Z,1010.98
2018-02-04T10:38:06.612Z,1011.00
2018-02-04T10:39:07.034Z,1011.05
2018-02-04T10:40:06.601Z,1011.08
2018-02-04T10:41:06.598Z,1011.09
2018-02-04T10:42:06.765Z,1011.11
2018-02-04T10:43:06.594Z,1011.09
2018-02-04T10:44:06.544Z,1011.12
2018-02-04T10:45:06.519Z,1011.15
2018-02-04T10:46:06.896Z,1011.16
2018-02-04T10:47:06.497Z,1011.19
2018-02-04T10:48:06.537Z,1011.19
2018-02-04T10:49:06.501Z,1011.19
2018-02-04T10:50:06.485Z,1011.22
2018-02-04T10:51:06.531Z,1011.24
2018-02-04T10:52:06.442Z,1011.21
2018-02-04T10:53:06.771Z,1011.21
2018-02-04T10:54:06.409Z,1011.26
2018-02-04T10:56:06.478Z,1011.24
2018-02-04T10:57:06.394Z,1011.29
2018-02-04T10:58:06.411Z,1011.30
2018-02-04T10:59:06.390Z,1011.34
2018-02-04T11:00:06.736Z,1011.37
2018-02-04T11:02:06.807Z,1011.40
2018-02-04T11:03:06.336Z,1011.39
2018-02-04T11:04:06.578Z,1011.41
2018-02-04T11:05:06.335Z,1011.40
2018-02-04T11:06:06.833Z,1011.41
2018-02-04T11:08:06.339Z,1011.43
2018-02-04T11:09:06.291Z,1011.47
2018-02-04T11:10:06.280Z,1011.48
2018-02-04T11:11:06.255Z,1011.44
2018-02-04T11:12:06.553Z,1011.45
2018-02-04T11:13:06.227Z,1011.43
2018-02-04T11:14:06.254Z,1011.47
2018-02-04T11:15:06.362Z,1011.43
2018-02-04T11:16:06.235Z,1011.48
2018-02-04T11:17:06.212Z,1011.51
2018-02-04T11:18:06.581Z,1011.51
2018-02-04T11:19:06.169Z,1011.50
2018-02-04T11:20:06.213Z,1011.51
2018-02-04T11:21:06.194Z,1011.52
2018-02-04T11:22:06.138Z,1011.54
2018-02-04T11:23:06.164Z,1011.56
2018-02-04T11:24:06.969Z,1011.55
2018-02-04T11:25:06.132Z,1011.54
2018-02-04T11:27:06.585Z,1011.58
2018-02-04T11:28:06.107Z,1011.59
2018-02-04T11:30:06.459Z,1011.57
2018-02-04T11:31:06.043Z,1011.60
2018-02-04T11:32:06.073Z,1011.60
2018-02-04T11:33:06.102Z,1011.58
2018-02-04T11:34:06.028Z,1011.61
2018-02-04T11:35:06.042Z,1011.63
2018-02-04T11:36:06.782Z,1011.61
2018-02-04T11:37:07.240Z,1011.63
2018-02-04T11:38:06.089Z,1011.65
2018-02-04T11:39:06.030Z,1011.66
2018-02-04T11:40:05.965Z,1011.68
2018-02-04T11:41:05.967Z,1011.67
2018-02-04T11:42:06.244Z,1011.69
2018-02-04T11:46:05.976Z,1011.79
2018-02-04T11:47:05.886Z,1011.82
2018-02-04T11:48:06.199Z,1011.86
2018-02-04T11:49:05.872Z,1011.89
2018-02-04T11:50:05.870Z,1011.91
2018-02-04T11:51:06.229Z,1011.92
2018-02-04T11:52:06.385Z,1011.93
2018-02-04T11:53:05.842Z,1011.96
2018-02-04T11:54:06.321Z,1011.96
2018-02-04T11:55:06.223Z,1011.96
2018-02-04T11:56:05.875Z,1011.93
2018-02-04T11:57:05.817Z,1011.95
2018-02-04T11:58:05.856Z,1012.00
2018-02-04T12:00:05.894Z,1011.95
2018-02-04T12:01:05.780Z,1011.99
2018-02-04T12:02:06.137Z,1012.00
2018-02-04T12:03:05.810Z,1012.00
2018-02-04T12:04:05.725Z,1012.02
2018-02-04T12:05:05.704Z,1012.05
2018-02-04T12:06:05.723Z,1012.05
2018-02-04T12:07:05.707Z,1012.04
2018-02-04T12:08:05.756Z,1012.05
2018-02-04T12:09:06.013Z,1012.06
2018-02-04T12:10:05.694Z,1012.11
2018-02-04T12:11:05.681Z,1012.12
2018-02-04T12:13:05.739Z,1012.09
2018-02-04T12:14:05.617Z,1012.12
2018-02-04T12:15:05.649Z,1012.13
2018-02-04T12:16:05.952Z,1012.12
2018-02-04T12:17:05.890Z,1012.12
2018-02-04T12:18:05.614Z,1012.14
2018-02-04T12:19:05.857Z,1012.19
2018-02-04T12:20:05.584Z,1012.22
2018-02-04T12:21:05.592Z,1012.24
2018-02-04T12:22:05.544Z,1012.23
2018-02-04T12:23:05.885Z,1012.25
2018-02-04T12:24:05.615Z,1012.29
2018-02-04T12:25:05.530Z,1012.26
2018-02-04T12:26:05.502Z,1012.29
2018-02-04T12:27:05.485Z,1012.29
2018-02-04T12:29:05.912Z,1012.30
2018-02-04T12:30:05.588Z,1012.27
2018-02-04T12:31:05.459Z,1012.30
2018-02-04T12:32:05.433Z,1012.31
2018-02-04T12:33:05.461Z,1012.33
2018-02-04T12:34:05.430Z,1012.33
2018-02-04T12:35:05.494Z,1012.35
2018-02-04T12:36:05.795Z,1012.37
2018-02-04T12:37:05.554Z,1012.38
2018-02-04T12:38:05.433Z,1012.39
2018-02-04T12:39:05.433Z,1012.35
2018-02-04T12:40:05.462Z,1012.35
2018-02-04T12:41:05.449Z,1012.38
2018-02-04T12:42:06.362Z,1012.38
2018-02-04T12:43:05.387Z,1012.40
2018-02-04T12:44:05.630Z,1012.40
2018-02-04T12:45:05.312Z,1012.39
2018-02-04T12:46:05.351Z,1012.41
2018-02-04T12:47:05.307Z,1012.38
2018-02-04T12:48:05.748Z,1012.39
2018-02-04T12:49:05.357Z,1012.36
2018-02-04T12:50:05.457Z,1012.40
2018-02-04T12:51:05.343Z,1012.44
2018-02-04T12:53:05.273Z,1012.41
2018-02-04T12:54:05.528Z,1012.45
2018-02-04T12:55:05.292Z,1012.43
2018-02-04T12:56:05.281Z,1012.44
2018-02-04T12:57:05.286Z,1012.45
2018-02-04T12:58:05.270Z,1012.45
2018-02-04T12:59:05.226Z,1012.44
2018-02-04T13:00:05.557Z,1012.44
2018-02-04T13:01:05.181Z,1012.44
2018-02-04T13:03:05.231Z,1012.47
2018-02-04T13:04:05.206Z,1012.49
2018-02-04T13:05:05.238Z,1012.46
2018-02-04T13:06:05.505Z,1012.47
2018-02-04T13:07:05.211Z,1012.46
2018-02-04T13:08:05.246Z,1012.48
2018-02-04T13:09:05.582Z,1012.49
2018-02-04T13:10:05.167Z,1012.50
2018-02-04T13:13:05.422Z,1012.52
2018-02-04T13:16:05.075Z,1012.52
2018-02-04T13:17:05.040Z,1012.58
2018-02-04T13:18:05.035Z,1012.56
2018-02-04T13:19:05.523Z,1012.57
2018-02-04T13:20:05.049Z,1012.62
2018-02-04T13:21:05.023Z,1012.64
2018-02-04T13:22:05.055Z,1012.66
2018-02-04T13:24:04.947Z,1012.66
2018-02-04T13:25:04.957Z,1012.67
2018-02-04T13:26:05.290Z,1012.71
2018-02-04T13:28:04.952Z,1012.70
2018-02-04T13:29:04.977Z,1012.72
2018-02-04T13:30:05.124Z,1012.72
2018-02-04T13:31:04.887Z,1012.70
2018-02-04T13:32:04.958Z,1012.72
2018-02-04T13:33:05.226Z,1012.74
2018-02-04T13:34:05.021Z,1012.71
2018-02-04T13:35:05.120Z,1012.71
2018-02-04T13:36:04.871Z,1012.74
2018-02-04T13:39:05.318Z,1012.77
2018-02-04T13:41:04.829Z,1012.77
2018-02-04T13:42:04.802Z,1012.77
2018-02-04T13:43:04.839Z,1012.79
2018-02-04T13:44:04.814Z,1012.82
2018-02-04T13:45:04.798Z,1012.86
2018-02-04T13:47:05.055Z,1012.91
2018-02-04T13:48:04.712Z,1012.95
2018-02-04T13:49:04.703Z,1012.89
2018-02-04T13:50:04.706Z,1012.90
2018-02-04T13:51:05.536Z,1012.95
2018-02-04T13:53:05.408Z,1012.99
2018-02-04T13:54:04.714Z,1012.97
2018-02-04T13:55:05.062Z,1013.02
2018-02-04T13:56:04.615Z,1013.05
2018-02-04T13:58:04.677Z,1013.02
2018-02-04T13:59:04.782Z,1013.03
2018-02-04T14:00:05.343Z,1013.02
2018-02-04T14:01:04.658Z,1013.06
2018-02-04T14:02:04.625Z,1013.06
2018-02-04T14:03:04.593Z,1013.07
2018-02-04T14:04:04.556Z,1013.09
2018-02-04T14:05:04.609Z,1013.14
2018-02-04T14:06:04.610Z,1013.17
2018-02-04T14:07:04.931Z,1013.15
2018-02-04T14:08:04.523Z,1013.15
2018-02-04T14:09:04.654Z,1013.15
2018-02-04T14:10:04.535Z,1013.18
2018-02-04T14:11:04.482Z,1013.20
2018-02-04T14:12:04.536Z,1013.23
2018-02-04T14:14:04.782Z,1013.28
2018-02-04T14:15:04.468Z,1013.24
2018-02-04T14:16:04.451Z,1013.23
2018-02-04T14:17:04.414Z,1013.25
2018-02-04T14:18:04.448Z,1013.25